THY3FD LTAC-LTFM
Flight info
| Callsign | THY3FD |
|---|---|
| Flight time | 0h 57m |
| Altitude | 28000 |
| Route | YAVRU1T/03L YAVRU A4 ERSEN |
| Aircraft | A320/M-SDE3FGHIRWY/LB1 |
Departure
| Time | 2026-05-04 16:53 |
|---|---|
| Airport | Esenboğa International Airport (LTAC) |
Arrival
| Time | 2026-05-04 17:50 |
|---|---|
| Airport | İstanbul Airport (LTFM) |
| Time | Latitude | Longitude | Altitude | Speed | Heading |
|---|---|---|---|---|---|
| 2026-05-04 16:14 | 40.11491 | 32.98955 | 3113 ft | 0 kts | 131° |
| 2026-05-04 16:38 | 40.11508 | 32.98929 | 3113 ft | 4 kts | 129° |
| 2026-05-04 16:39 | 40.11537 | 32.98881 | 3113 ft | 0 kts | 125° |
| 2026-05-04 16:45 | 40.11536 | 32.98882 | 3113 ft | 1 kts | 125° |
| 2026-05-04 16:46 | 40.11646 | 32.98897 | 3113 ft | 15 kts | 308° |
| 2026-05-04 16:46 | 40.11704 | 32.98802 | 3112 ft | 0 kts | 307° |
| 2026-05-04 16:48 | 40.11708 | 32.98795 | 3112 ft | 3 kts | 308° |
| 2026-05-04 16:49 | 40.11779 | 32.98671 | 3113 ft | 14 kts | 306° |
| 2026-05-04 16:49 | 40.11801 | 32.98632 | 3113 ft | 0 kts | 307° |
| 2026-05-04 16:50 | 40.11839 | 32.98565 | 3113 ft | 10 kts | 306° |
| 2026-05-04 16:50 | 40.11961 | 32.98537 | 3113 ft | 0 kts | 34° |
| 2026-05-04 16:52 | 40.11977 | 32.98552 | 3113 ft | 13 kts | 36° |
| 2026-05-04 16:52 | 40.12202 | 32.98768 | 3116 ft | 73 kts | 36° |
| 2026-05-04 16:53 | 40.13638 | 33.00121 | 3149 ft | 172 kts | 30° |
| 2026-05-04 16:53 | 40.16501 | 33.03147 | 5118 ft | 183 kts | 35° |
| 2026-05-04 16:54 | 40.17523 | 33.04232 | 5397 ft | 202 kts | 35° |
| 2026-05-04 16:55 | 40.23102 | 33.07710 | 7421 ft | 255 kts | 336° |
| 2026-05-04 16:55 | 40.25668 | 33.04305 | 8720 ft | 274 kts | 304° |
| 2026-05-04 16:56 | 40.27783 | 33.00039 | 10221 ft | 284 kts | 305° |
| 2026-05-04 16:56 | 40.31614 | 32.93155 | 11206 ft | 338 kts | 309° |
| 2026-05-04 16:57 | 40.33085 | 32.90703 | 11742 ft | 345 kts | 310° |
| 2026-05-04 16:57 | 40.35343 | 32.85206 | 11886 ft | 346 kts | 287° |
| 2026-05-04 16:58 | 40.37061 | 32.76000 | 11984 ft | 345 kts | 285° |
| 2026-05-04 16:58 | 40.37633 | 32.72935 | 12424 ft | 347 kts | 285° |
| 2026-05-04 16:59 | 40.38799 | 32.66712 | 13511 ft | 355 kts | 285° |
| 2026-05-04 17:00 | 40.41170 | 32.53934 | 15509 ft | 366 kts | 286° |
| 2026-05-04 17:00 | 40.42989 | 32.44057 | 17087 ft | 376 kts | 287° |
| 2026-05-04 17:01 | 40.44222 | 32.37333 | 18189 ft | 382 kts | 287° |
| 2026-05-04 17:01 | 40.45474 | 32.30499 | 19161 ft | 388 kts | 288° |
| 2026-05-04 17:02 | 40.46738 | 32.23561 | 20128 ft | 394 kts | 289° |
| 2026-05-04 17:02 | 40.48351 | 32.16728 | 21045 ft | 395 kts | 298° |
| 2026-05-04 17:03 | 40.49366 | 32.13351 | 21505 ft | 399 kts | 298° |
| 2026-05-04 17:03 | 40.50380 | 32.09947 | 21969 ft | 402 kts | 298° |
| 2026-05-04 17:03 | 40.52419 | 32.03049 | 22893 ft | 409 kts | 298° |
| 2026-05-04 17:04 | 40.54485 | 31.96039 | 23752 ft | 414 kts | 298° |
| 2026-05-04 17:04 | 40.56567 | 31.88944 | 23981 ft | 416 kts | 298° |
| 2026-05-04 17:05 | 40.58642 | 31.81814 | 24291 ft | 420 kts | 297° |
| 2026-05-04 17:05 | 40.60531 | 31.74460 | 25094 ft | 428 kts | 295° |
| 2026-05-04 17:06 | 40.62026 | 31.68194 | 25617 ft | 433 kts | 294° |
| 2026-05-04 17:06 | 40.62929 | 31.64404 | 25968 ft | 436 kts | 295° |
| 2026-05-04 17:07 | 40.64785 | 31.56768 | 26681 ft | 440 kts | 295° |
| 2026-05-04 17:07 | 40.65411 | 31.54222 | 26900 ft | 442 kts | 295° |
| 2026-05-04 17:07 | 40.66682 | 31.49057 | 27008 ft | 443 kts | 295° |
| 2026-05-04 17:07 | 40.67630 | 31.45201 | 27016 ft | 443 kts | 295° |
| 2026-05-04 17:08 | 40.68576 | 31.41351 | 26983 ft | 441 kts | 295° |
| 2026-05-04 17:08 | 40.70454 | 31.33681 | 27024 ft | 439 kts | 295° |
| 2026-05-04 17:08 | 40.71388 | 31.29851 | 27024 ft | 439 kts | 295° |
| 2026-05-04 17:09 | 40.72318 | 31.26021 | 27021 ft | 439 kts | 295° |
| 2026-05-04 17:09 | 40.73246 | 31.22199 | 27026 ft | 439 kts | 295° |
| 2026-05-04 17:09 | 40.74173 | 31.18357 | 27025 ft | 439 kts | 295° |
| 2026-05-04 17:10 | 40.76022 | 31.10685 | 27009 ft | 438 kts | 295° |
| 2026-05-04 17:10 | 40.78791 | 30.99195 | 27028 ft | 438 kts | 295° |
| 2026-05-04 17:11 | 40.79710 | 30.95367 | 27025 ft | 438 kts | 295° |
| 2026-05-04 17:11 | 40.80625 | 30.91545 | 27023 ft | 438 kts | 295° |
| 2026-05-04 17:11 | 40.82454 | 30.83880 | 27030 ft | 438 kts | 295° |
| 2026-05-04 17:12 | 40.83367 | 30.80051 | 27027 ft | 438 kts | 295° |
| 2026-05-04 17:12 | 40.85196 | 30.72380 | 27030 ft | 438 kts | 295° |
| 2026-05-04 17:13 | 40.87178 | 30.60559 | 26282 ft | 437 kts | 284° |
| 2026-05-04 17:14 | 40.88414 | 30.49050 | 24915 ft | 408 kts | 293° |
| 2026-05-04 17:14 | 40.89373 | 30.45587 | 24488 ft | 395 kts | 303° |
| 2026-05-04 17:14 | 40.92388 | 30.39851 | 23662 ft | 376 kts | 319° |
| 2026-05-04 17:15 | 40.94129 | 30.37287 | 23209 ft | 373 kts | 319° |
| 2026-05-04 17:15 | 40.97550 | 30.32198 | 22393 ft | 368 kts | 318° |
| 2026-05-04 17:16 | 41.00907 | 30.27177 | 21706 ft | 358 kts | 318° |
| 2026-05-04 17:16 | 41.05736 | 30.19952 | 20704 ft | 340 kts | 317° |
| 2026-05-04 17:17 | 41.07020 | 30.17317 | 20382 ft | 348 kts | 296° |
| 2026-05-04 17:17 | 41.04850 | 30.08455 | 19662 ft | 363 kts | 226° |
| 2026-05-04 17:18 | 41.02998 | 30.06227 | 19533 ft | 355 kts | 223° |
| 2026-05-04 17:18 | 40.99240 | 30.02081 | 18971 ft | 350 kts | 221° |
| 2026-05-04 17:19 | 40.95587 | 29.98025 | 18672 ft | 337 kts | 223° |
| 2026-05-04 17:19 | 40.92076 | 29.93994 | 18152 ft | 332 kts | 224° |
| 2026-05-04 17:20 | 40.88820 | 29.89759 | 17543 ft | 324 kts | 239° |
| 2026-05-04 17:20 | 40.87050 | 29.84456 | 16899 ft | 310 kts | 265° |
| 2026-05-04 17:20 | 40.86826 | 29.81664 | 16578 ft | 302 kts | 276° |
| 2026-05-04 17:21 | 40.86769 | 29.76134 | 16072 ft | 299 kts | 275° |
| 2026-05-04 17:21 | 40.86696 | 29.70540 | 16010 ft | 316 kts | 275° |
| 2026-05-04 17:22 | 40.86657 | 29.67670 | 15864 ft | 310 kts | 275° |
| 2026-05-04 17:22 | 40.86600 | 29.64844 | 15493 ft | 305 kts | 271° |
| 2026-05-04 17:23 | 40.85317 | 29.56582 | 13894 ft | 304 kts | 264° |
| 2026-05-04 17:23 | 40.84874 | 29.53886 | 13581 ft | 295 kts | 264° |
| 2026-05-04 17:23 | 40.84408 | 29.48553 | 13215 ft | 291 kts | 274° |
| 2026-05-04 17:24 | 40.84339 | 29.45890 | 13026 ft | 289 kts | 274° |
| 2026-05-04 17:24 | 40.84109 | 29.37963 | 12475 ft | 287 kts | 274° |
| 2026-05-04 17:25 | 40.84032 | 29.35368 | 12261 ft | 286 kts | 274° |
| 2026-05-04 17:25 | 40.83877 | 29.30136 | 11838 ft | 283 kts | 274° |
| 2026-05-04 17:26 | 40.83722 | 29.24981 | 11333 ft | 279 kts | 273° |
| 2026-05-04 17:26 | 40.83485 | 29.17336 | 10603 ft | 278 kts | 275° |
| 2026-05-04 17:27 | 40.83328 | 29.12231 | 10117 ft | 275 kts | 275° |
| 2026-05-04 17:27 | 40.83699 | 29.07375 | 9756 ft | 259 kts | 286° |
| 2026-05-04 17:28 | 40.84229 | 29.02795 | 9487 ft | 247 kts | 287° |
| 2026-05-04 17:29 | 40.84984 | 28.96227 | 8940 ft | 241 kts | 287° |
| 2026-05-04 17:29 | 40.85761 | 28.89570 | 8075 ft | 240 kts | 286° |
| 2026-05-04 17:30 | 40.84811 | 28.83071 | 8009 ft | 246 kts | 259° |
| 2026-05-04 17:31 | 40.83722 | 28.78825 | 8003 ft | 242 kts | 259° |
| 2026-05-04 17:31 | 40.82119 | 28.72583 | 7837 ft | 240 kts | 259° |
| 2026-05-04 17:32 | 40.81041 | 28.68425 | 7642 ft | 241 kts | 259° |
| 2026-05-04 17:33 | 40.79426 | 28.62202 | 7010 ft | 231 kts | 258° |
| 2026-05-04 17:33 | 40.78912 | 28.60256 | 7004 ft | 218 kts | 259° |
| 2026-05-04 17:34 | 40.77470 | 28.54715 | 7035 ft | 197 kts | 261° |
| 2026-05-04 17:34 | 40.77278 | 28.53070 | 7004 ft | 169 kts | 283° |
| 2026-05-04 17:35 | 40.78687 | 28.49508 | 6808 ft | 141 kts | 329° |
| 2026-05-04 17:35 | 40.80498 | 28.48460 | 7030 ft | 146 kts | 343° |
| 2026-05-04 17:35 | 40.81462 | 28.48027 | 7041 ft | 147 kts | 343° |
| 2026-05-04 17:36 | 40.82428 | 28.47590 | 7031 ft | 146 kts | 343° |
| 2026-05-04 17:36 | 40.83388 | 28.47155 | 7017 ft | 146 kts | 343° |
| 2026-05-04 17:36 | 40.84361 | 28.46770 | 7014 ft | 146 kts | 351° |
| 2026-05-04 17:36 | 40.85372 | 28.46741 | 7015 ft | 147 kts | 6° |
| 2026-05-04 17:37 | 40.86358 | 28.47121 | 6929 ft | 151 kts | 20° |
| 2026-05-04 17:37 | 40.87252 | 28.47924 | 6559 ft | 162 kts | 37° |
| 2026-05-04 17:37 | 40.88058 | 28.48997 | 6188 ft | 166 kts | 37° |
| 2026-05-04 17:37 | 40.88880 | 28.50084 | 5823 ft | 168 kts | 38° |
| 2026-05-04 17:38 | 40.89710 | 28.51182 | 5492 ft | 169 kts | 38° |
| 2026-05-04 17:38 | 40.90546 | 28.52287 | 5151 ft | 170 kts | 38° |
| 2026-05-04 17:38 | 40.91367 | 28.53374 | 4822 ft | 169 kts | 38° |
| 2026-05-04 17:38 | 40.92198 | 28.54477 | 4475 ft | 169 kts | 39° |
| 2026-05-04 17:39 | 40.93829 | 28.56647 | 3826 ft | 162 kts | 39° |
| 2026-05-04 17:39 | 40.94610 | 28.57683 | 3505 ft | 156 kts | 39° |
| 2026-05-04 17:39 | 40.95300 | 28.58779 | 3193 ft | 155 kts | 51° |
| 2026-05-04 17:40 | 40.95752 | 28.60052 | 3018 ft | 149 kts | 65° |
| 2026-05-04 17:40 | 40.95945 | 28.61353 | 3021 ft | 143 kts | 77° |
| 2026-05-04 17:40 | 40.95965 | 28.62659 | 3009 ft | 141 kts | 80° |
| 2026-05-04 17:40 | 40.95979 | 28.63949 | 3013 ft | 140 kts | 80° |
| 2026-05-04 17:41 | 40.95996 | 28.65232 | 3013 ft | 139 kts | 79° |
| 2026-05-04 17:41 | 40.96123 | 28.66473 | 3010 ft | 134 kts | 66° |
| 2026-05-04 17:41 | 40.96462 | 28.67604 | 3011 ft | 131 kts | 53° |
| 2026-05-04 17:41 | 40.96983 | 28.68586 | 3016 ft | 131 kts | 41° |
| 2026-05-04 17:42 | 40.97663 | 28.69387 | 3017 ft | 131 kts | 30° |
| 2026-05-04 17:42 | 40.98458 | 28.69997 | 3014 ft | 134 kts | 25° |
| 2026-05-04 17:42 | 40.99273 | 28.70593 | 3009 ft | 134 kts | 26° |
| 2026-05-04 17:42 | 41.00129 | 28.71067 | 3014 ft | 134 kts | 14° |
| 2026-05-04 17:43 | 41.01054 | 28.71241 | 3015 ft | 135 kts | 1° |
| 2026-05-04 17:43 | 41.01995 | 28.71221 | 3007 ft | 135 kts | 0° |
| 2026-05-04 17:43 | 41.02932 | 28.71203 | 3012 ft | 135 kts | 360° |
| 2026-05-04 17:43 | 41.03870 | 28.71185 | 3014 ft | 135 kts | 359° |
| 2026-05-04 17:44 | 41.04794 | 28.71168 | 3008 ft | 135 kts | 359° |
| 2026-05-04 17:44 | 41.05743 | 28.71150 | 3010 ft | 135 kts | 360° |
| 2026-05-04 17:44 | 41.06680 | 28.71131 | 3005 ft | 134 kts | 359° |
| 2026-05-04 17:44 | 41.07614 | 28.71113 | 3008 ft | 134 kts | 359° |
| 2026-05-04 17:45 | 41.08550 | 28.71095 | 3015 ft | 135 kts | 359° |
| 2026-05-04 17:45 | 41.09485 | 28.71076 | 3005 ft | 135 kts | 359° |
| 2026-05-04 17:45 | 41.10422 | 28.71058 | 3014 ft | 135 kts | 359° |
| 2026-05-04 17:45 | 41.11361 | 28.71040 | 3004 ft | 135 kts | 360° |
| 2026-05-04 17:46 | 41.12296 | 28.71021 | 3007 ft | 135 kts | 360° |
| 2026-05-04 17:46 | 41.13228 | 28.71003 | 2923 ft | 136 kts | 360° |
| 2026-05-04 17:46 | 41.14171 | 28.70984 | 2784 ft | 135 kts | 360° |
| 2026-05-04 17:46 | 41.15111 | 28.70966 | 2613 ft | 135 kts | 360° |
| 2026-05-04 17:47 | 41.16047 | 28.70948 | 2438 ft | 134 kts | 0° |
| 2026-05-04 17:47 | 41.16975 | 28.70929 | 2256 ft | 133 kts | 1° |
| 2026-05-04 17:47 | 41.17901 | 28.70911 | 2078 ft | 133 kts | 1° |
| 2026-05-04 17:47 | 41.18825 | 28.70893 | 1896 ft | 132 kts | 0° |
| 2026-05-04 17:48 | 41.19745 | 28.70875 | 1723 ft | 132 kts | 0° |
| 2026-05-04 17:48 | 41.20668 | 28.70857 | 1530 ft | 133 kts | 1° |
| 2026-05-04 17:48 | 41.21591 | 28.70838 | 1348 ft | 133 kts | 360° |
| 2026-05-04 17:48 | 41.22214 | 28.70826 | 1219 ft | 132 kts | 360° |
| 2026-05-04 17:49 | 41.23132 | 28.70807 | 1040 ft | 133 kts | 359° |
| 2026-05-04 17:49 | 41.24042 | 28.70779 | 823 ft | 132 kts | 357° |
| 2026-05-04 17:49 | 41.24954 | 28.70782 | 696 ft | 131 kts | 358° |
| 2026-05-04 17:49 | 41.25865 | 28.70752 | 484 ft | 131 kts | 355° |
| 2026-05-04 17:50 | 41.26773 | 28.70733 | 371 ft | 130 kts | 355° |
| 2026-05-04 17:50 | 41.27594 | 28.70704 | 332 ft | 97 kts | 358° |
| 2026-05-04 17:50 | 41.28172 | 28.70701 | 333 ft | 66 kts | 4° |
| 2026-05-04 17:50 | 41.28419 | 28.70843 | 331 ft | 0 kts | 38° |
| 2026-05-04 17:51 | 41.28423 | 28.70848 | 330 ft | 2 kts | 38° |
| 2026-05-04 17:51 | 41.28442 | 28.70865 | 330 ft | 5 kts | 35° |
| 2026-05-04 17:51 | 41.28475 | 28.70899 | 331 ft | 7 kts | 44° |
| 2026-05-04 17:51 | 41.28501 | 28.70986 | 330 ft | 15 kts | 81° |
| 2026-05-04 17:52 | 41.28505 | 28.71123 | 334 ft | 13 kts | 92° |
| 2026-05-04 17:52 | 41.28504 | 28.71153 | 334 ft | 1 kts | 91° |
| 2026-05-04 17:52 | 41.28502 | 28.71163 | 334 ft | 0 kts | 107° |
| 2026-05-04 17:52 | 41.28502 | 28.71164 | 334 ft | 0 kts | 108° |
| 2026-05-04 17:53 | 41.28488 | 28.71173 | 331 ft | 7 kts | 164° |
| 2026-05-04 17:53 | 41.28401 | 28.71177 | 332 ft | 18 kts | 180° |
| 2026-05-04 17:53 | 41.28240 | 28.71178 | 333 ft | 28 kts | 178° |
| 2026-05-04 17:54 | 41.28026 | 28.71186 | 333 ft | 31 kts | 179° |
| 2026-05-04 17:54 | 41.27814 | 28.71189 | 332 ft | 30 kts | 180° |
| 2026-05-04 17:54 | 41.27612 | 28.71192 | 332 ft | 26 kts | 177° |
| 2026-05-04 17:54 | 41.27427 | 28.71195 | 332 ft | 27 kts | 180° |
| 2026-05-04 17:55 | 41.27242 | 28.71200 | 334 ft | 28 kts | 182° |
| 2026-05-04 17:55 | 41.27051 | 28.71205 | 330 ft | 27 kts | 176° |
| 2026-05-04 17:55 | 41.26865 | 28.71208 | 333 ft | 23 kts | 178° |
| 2026-05-04 17:55 | 41.26787 | 28.71210 | 332 ft | 0 kts | 179° |
| 2026-05-04 17:56 | 41.26775 | 28.71210 | 333 ft | 3 kts | 180° |
| 2026-05-04 17:56 | 41.26743 | 28.71213 | 333 ft | 6 kts | 168° |
| 2026-05-04 17:56 | 41.26706 | 28.71255 | 331 ft | 8 kts | 120° |
| 2026-05-04 17:56 | 41.26697 | 28.71339 | 331 ft | 10 kts | 93° |
| 2026-05-04 17:57 | 41.26698 | 28.71443 | 330 ft | 13 kts | 86° |
| 2026-05-04 17:57 | 41.26702 | 28.71570 | 331 ft | 15 kts | 89° |
| 2026-05-04 17:57 | 41.26701 | 28.71718 | 333 ft | 17 kts | 90° |
| 2026-05-04 17:57 | 41.26704 | 28.71887 | 334 ft | 19 kts | 88° |
| 2026-05-04 17:58 | 41.26706 | 28.72080 | 334 ft | 20 kts | 88° |
| 2026-05-04 17:58 | 41.26707 | 28.72240 | 334 ft | 15 kts | 89° |
| 2026-05-04 17:58 | 41.26709 | 28.72346 | 334 ft | 0 kts | 89° |
| 2026-05-04 18:00 | 41.26709 | 28.72353 | 330 ft | 2 kts | 89° |
| 2026-05-04 18:00 | 41.26709 | 28.72386 | 334 ft | 5 kts | 90° |
| 2026-05-04 18:00 | 41.26709 | 28.72443 | 334 ft | 8 kts | 89° |
| 2026-05-04 18:01 | 41.26711 | 28.72562 | 331 ft | 16 kts | 89° |
| 2026-05-04 18:01 | 41.26714 | 28.72727 | 332 ft | 20 kts | 88° |
| 2026-05-04 18:01 | 41.26719 | 28.72915 | 334 ft | 19 kts | 87° |
| 2026-05-04 18:02 | 41.26671 | 28.73109 | 333 ft | 11 kts | 174° |
| 2026-05-04 18:02 | 41.26607 | 28.73157 | 333 ft | 12 kts | 120° |
| 2026-05-04 18:02 | 41.26589 | 28.73266 | 334 ft | 13 kts | 78° |
| 2026-05-04 18:02 | 41.26580 | 28.73354 | 331 ft | 8 kts | 131° |
| 2026-05-04 18:03 | 41.26537 | 28.73397 | 332 ft | 9 kts | 123° |
| 2026-05-04 18:03 | 41.26543 | 28.73467 | 329 ft | 4 kts | 66° |
| 2026-05-04 18:03 | 41.26552 | 28.73499 | 332 ft | 2 kts | 71° |
| 2026-05-04 18:03 | 41.26552 | 28.73500 | 332 ft | 0 kts | 71° |